Time;durP1;ratioP1;P1;durP2;ratioP2;P2;SDS_P1;SDS_P2;PMS_P1;PMS_P2;Temp;Humidity;BMP_temperature;BMP_pressure;BME280_temperature;BME280_humidity;BME280_pressure;Samples;Min_cycle;Max_cycle;Signal;HPM_P1;HPM_P2
2024/01/30 00:01:54;;;;;;;6.53;5.50;;;;;;;;;;6152557;23;20381;-70
2024/01/30 00:04:20;;;;;;;6.20;5.63;;;;;;;;;;6152055;23;20768;-70
2024/01/30 00:06:46;;;;;;;6.70;6.13;;;;;;;;;;6152505;23;20432;-70
2024/01/30 00:09:12;;;;;;;7.33;6.60;;;;;;;;;;6152770;23;20448;-70
2024/01/30 00:11:38;;;;;;;7.43;6.83;;;;;;;;;;6152748;23;20373;-70
2024/01/30 00:14:04;;;;;;;7.70;6.40;;;;;;;;;;6126187;23;20404;-70
2024/01/30 00:16:31;;;;;;;5.53;5.23;;;;;;;;;;6126383;23;20391;-70
2024/01/30 00:18:57;;;;;;;8.20;7.07;;;;;;;;;;6153189;23;20522;-70
2024/01/30 00:21:23;;;;;;;7.80;6.90;;;;;;;;;;6153455;23;20447;-69
2024/01/30 00:23:49;;;;;;;9.67;6.83;;;;;;;;;;6152832;23;20428;-70
2024/01/30 00:26:15;;;;;;;6.60;6.10;;;;;;;;;;6151971;23;20487;-70
2024/01/30 00:28:41;;;;;;;10.03;6.80;;;;;;;;;;6152518;23;20427;-70
2024/01/30 00:31:12;;;;;;;7.83;6.80;;;;;;;;;;6153166;23;20388;-70
2024/01/30 00:33:38;;;;;;;8.17;7.37;;;;;;;;;;6153386;23;20396;-70
2024/01/30 00:36:04;;;;;;;7.20;6.50;;;;;;;;;;6152171;23;20377;-70
2024/01/30 00:38:30;;;;;;;6.20;5.70;;;;;;;;;;6152880;23;20456;-70
2024/01/30 00:40:56;;;;;;;5.90;5.50;;;;;;;;;;6151706;23;20404;-70
2024/01/30 00:43:22;;;;;;;6.87;6.30;;;;;;;;;;6151973;23;20435;-70
2024/01/30 00:45:47;;;;;;;6.10;5.70;;;;;;;;;;6151802;23;20851;-70
2024/01/30 00:48:13;;;;;;;6.63;6.00;;;;;;;;;;6152572;23;20388;-70
2024/01/30 00:50:39;;;;;;;8.00;5.57;;;;;;;;;;6153288;23;20712;-69
2024/01/30 00:53:05;;;;;;;5.63;5.30;;;;;;;;;;6151456;23;20439;-70
2024/01/30 00:55:32;;;;;;;6.43;5.70;;;;;;;;;;6150127;23;20381;-70
2024/01/30 00:57:58;;;;;;;6.97;5.30;;;;;;;;;;6150393;23;20380;-70
2024/01/30 01:00:28;;;;;;;6.17;5.57;;;;;;;;;;6151008;23;20468;-70
2024/01/30 01:02:54;;;;;;;6.30;5.77;;;;;;;;;;6151764;23;20486;-70
2024/01/30 01:05:20;;;;;;;5.93;5.53;;;;;;;;;;6150919;23;20385;-70
2024/01/30 01:07:48;;;;;;;8.13;5.73;;;;;;;;;;6152796;23;20373;-70
2024/01/30 01:10:14;;;;;;;5.60;5.30;;;;;;;;;;6151168;23;20388;-70
2024/01/30 01:12:40;;;;;;;4.70;4.50;;;;;;;;;;6152837;23;20897;-70
2024/01/30 01:15:09;;;;;;;5.70;5.30;;;;;;;;;;6151603;23;20456;-69
2024/01/30 01:17:35;;;;;;;5.87;5.13;;;;;;;;;;6151582;23;20373;-70
2024/01/30 01:20:01;;;;;;;5.20;4.90;;;;;;;;;;6151026;23;20377;-70
2024/01/30 01:22:27;;;;;;;5.67;5.27;;;;;;;;;;6151150;23;20383;-70
2024/01/30 01:24:53;;;;;;;6.13;5.53;;;;;;;;;;6150273;23;20447;-70
2024/01/30 01:27:19;;;;;;;5.57;5.13;;;;;;;;;;6150885;23;20472;-70
2024/01/30 01:29:45;;;;;;;5.33;4.93;;;;;;;;;;6151528;23;20436;-70
2024/01/30 01:32:11;;;;;;;5.23;4.77;;;;;;;;;;6125011;23;20447;-70
2024/01/30 01:34:37;;;;;;;10.50;7.30;;;;;;;;;;6152405;23;20377;-70
2024/01/30 01:37:03;;;;;;;6.87;6.20;;;;;;;;;;6153865;23;20778;-70
2024/01/30 01:39:29;;;;;;;4.70;4.50;;;;;;;;;;6152723;23;20381;-70
2024/01/30 01:41:55;;;;;;;4.87;4.57;;;;;;;;;;6153401;23;20455;-70
2024/01/30 01:44:21;;;;;;;5.90;4.90;;;;;;;;;;6153624;23;20436;-70
2024/01/30 01:46:48;;;;;;;5.60;5.23;;;;;;;;;;6154012;23;21261;-70
2024/01/30 01:49:14;;;;;;;6.50;4.83;;;;;;;;;;6127414;23;20909;-70
2024/01/30 01:51:41;;;;;;;5.50;5.10;;;;;;;;;;6153792;23;20383;-69
2024/01/30 01:54:07;;;;;;;5.90;5.50;;;;;;;;;;6152952;23;20389;-69
2024/01/30 01:56:34;;;;;;;8.20;5.17;;;;;;;;;;6154160;23;20415;-69
2024/01/30 01:59:01;;;;;;;9.03;5.87;;;;;;;;;;6154125;23;20937;-70
2024/01/30 02:01:28;;;;;;;4.57;4.37;;;;;;;;;;6153994;23;20384;-70
2024/01/30 02:03:54;;;;;;;7.07;5.90;;;;;;;;;;6153769;23;20436;-70
2024/01/30 02:06:20;;;;;;;6.67;6.00;;;;;;;;;;6153565;23;20781;-70
2024/01/30 02:08:46;;;;;;;7.43;6.53;;;;;;;;;;6153661;23;20380;-70
2024/01/30 02:11:12;;;;;;;5.20;4.80;;;;;;;;;;6154171;23;20844;-69
2024/01/30 02:13:38;;;;;;;6.20;5.60;;;;;;;;;;6154281;23;20380;-69
2024/01/30 02:16:05;;;;;;;6.20;5.57;;;;;;;;;;6153377;23;20384;-70
2024/01/30 02:18:31;;;;;;;5.50;5.10;;;;;;;;;;6153775;23;20475;-70
2024/01/30 02:21:01;;;;;;;6.87;5.53;;;;;;;;;;6154529;23;20747;-70
2024/01/30 02:23:27;;;;;;;9.03;5.27;;;;;;;;;;6153615;23;20421;-70
2024/01/30 02:25:53;;;;;;;4.80;4.40;;;;;;;;;;6153277;23;20796;-69
2024/01/30 02:28:20;;;;;;;5.27;4.93;;;;;;;;;;6154360;23;20710;-70
2024/01/30 02:30:48;;;;;;;5.17;4.67;;;;;;;;;;6153426;23;20484;-70
2024/01/30 02:33:14;;;;;;;5.10;4.63;;;;;;;;;;6153442;23;20464;-70
2024/01/30 02:35:40;;;;;;;5.00;4.60;;;;;;;;;;6151662;23;20392;-70
2024/01/30 02:38:06;;;;;;;5.77;5.23;;;;;;;;;;6153338;23;20381;-70
2024/01/30 02:40:32;;;;;;;7.70;4.47;;;;;;;;;;6153332;23;20396;-69
2024/01/30 02:42:59;;;;;;;9.20;4.93;;;;;;;;;;6153541;23;20947;-70
2024/01/30 02:45:25;;;;;;;4.27;4.07;;;;;;;;;;6153589;23;20503;-69
2024/01/30 02:47:51;;;;;;;6.13;5.53;;;;;;;;;;6151697;23;20420;-69
2024/01/30 02:50:17;;;;;;;5.93;5.30;;;;;;;;;;6153644;23;20890;-69
2024/01/30 02:52:46;;;;;;;4.67;4.37;;;;;;;;;;6154040;23;20377;-69
2024/01/30 02:55:12;;;;;;;4.83;4.43;;;;;;;;;;6126396;23;20396;-69
2024/01/30 02:57:39;;;;;;;4.77;4.30;;;;;;;;;;6153565;23;20513;-70
2024/01/30 03:00:06;;;;;;;4.13;3.97;;;;;;;;;;6152907;23;20432;-70
2024/01/30 03:02:32;;;;;;;4.53;4.13;;;;;;;;;;6128207;23;20382;-70
2024/01/30 03:04:58;;;;;;;5.00;4.60;;;;;;;;;;6152951;23;20433;-70
2024/01/30 03:07:24;;;;;;;5.27;4.87;;;;;;;;;;6153481;23;20373;-70
2024/01/30 03:09:50;;;;;;;5.20;4.70;;;;;;;;;;6152841;23;20381;-70
2024/01/30 03:12:16;;;;;;;4.97;4.57;;;;;;;;;;6153774;23;20405;-70
2024/01/30 03:14:42;;;;;;;4.30;3.93;;;;;;;;;;6153826;23;20420;-70
2024/01/30 03:17:08;;;;;;;4.40;4.10;;;;;;;;;;6152857;23;20377;-70
2024/01/30 03:19:35;;;;;;;4.30;4.10;;;;;;;;;;6153383;23;20391;-70
2024/01/30 03:22:01;;;;;;;3.30;3.00;;;;;;;;;;6153769;23;20463;-70
2024/01/30 03:24:27;;;;;;;2.83;2.73;;;;;;;;;;6126722;23;20452;-70
2024/01/30 03:26:54;;;;;;;3.07;2.97;;;;;;;;;;6152806;23;20472;-70
2024/01/30 03:29:20;;;;;;;14.13;6.00;;;;;;;;;;6152967;23;20388;-69
2024/01/30 03:31:46;;;;;;;23.80;10.63;;;;;;;;;;6153134;23;20385;-69
2024/01/30 03:34:12;;;;;;;9.63;6.70;;;;;;;;;;6153430;23;20859;-69
2024/01/30 03:36:38;;;;;;;25.73;8.30;;;;;;;;;;6152802;23;20726;-70
2024/01/30 03:39:04;;;;;;;12.90;7.73;;;;;;;;;;6126643;23;20393;-70
2024/01/30 03:41:30;;;;;;;6.47;5.10;;;;;;;;;;6152670;23;20385;-70
2024/01/30 03:43:56;;;;;;;4.03;3.63;;;;;;;;;;6153519;23;20769;-69
2024/01/30 03:46:22;;;;;;;3.73;3.20;;;;;;;;;;6152779;23;20384;-69
2024/01/30 03:48:48;;;;;;;3.63;3.13;;;;;;;;;;6153088;23;20372;-70
2024/01/30 03:51:15;;;;;;;4.00;3.80;;;;;;;;;;6151428;23;20381;-69
2024/01/30 03:53:42;;;;;;;5.57;5.13;;;;;;;;;;6153053;23;20385;-69
2024/01/30 03:56:08;;;;;;;3.57;3.47;;;;;;;;;;6153104;23;20699;-70
2024/01/30 03:58:34;;;;;;;3.43;3.23;;;;;;;;;;6152507;23;20922;-70
2024/01/30 04:01:00;;;;;;;3.73;3.43;;;;;;;;;;6152702;23;20455;-69
2024/01/30 04:03:26;;;;;;;3.47;3.17;;;;;;;;;;6126138;23;20436;-70
2024/01/30 04:05:52;;;;;;;4.50;3.87;;;;;;;;;;6126945;23;20401;-69
2024/01/30 04:08:18;;;;;;;3.17;2.57;;;;;;;;;;6153140;23;20460;-70
2024/01/30 04:10:44;;;;;;;3.33;3.23;;;;;;;;;;6151916;23;20377;-70
2024/01/30 04:13:10;;;;;;;2.40;2.40;;;;;;;;;;6127159;23;20886;-70
2024/01/30 04:15:36;;;;;;;4.60;4.27;;;;;;;;;;6152167;23;20395;-70
2024/01/30 04:18:02;;;;;;;2.97;2.83;;;;;;;;;;6152585;23;20866;-69
2024/01/30 04:20:29;;;;;;;2.70;2.60;;;;;;;;;;6152924;23;20373;-69
2024/01/30 04:22:55;;;;;;;2.77;2.77;;;;;;;;;;6153059;23;20384;-69
2024/01/30 04:25:21;;;;;;;5.63;2.97;;;;;;;;;;6151363;23;20381;-69
2024/01/30 04:27:48;;;;;;;2.90;2.80;;;;;;;;;;6152953;23;20447;-69
2024/01/30 04:30:14;;;;;;;2.93;2.73;;;;;;;;;;6153086;23;20756;-69
2024/01/30 04:32:40;;;;;;;4.67;3.83;;;;;;;;;;6126463;23;20416;-70
2024/01/30 04:35:06;;;;;;;4.70;3.90;;;;;;;;;;6152667;23;20407;-70
2024/01/30 04:37:32;;;;;;;4.17;3.93;;;;;;;;;;6152464;23;20376;-70
2024/01/30 04:39:58;;;;;;;7.00;5.97;;;;;;;;;;6126111;23;20389;-70
2024/01/30 04:42:24;;;;;;;15.50;5.83;;;;;;;;;;6153224;23;20392;-69
2024/01/30 04:44:50;;;;;;;4.90;4.50;;;;;;;;;;6152494;23;21038;-69
2024/01/30 04:47:16;;;;;;;6.87;4.83;;;;;;;;;;6152043;23;20396;-70
2024/01/30 04:49:42;;;;;;;4.57;4.23;;;;;;;;;;6152847;23;20859;-70
2024/01/30 04:52:08;;;;;;;4.07;3.80;;;;;;;;;;6152611;23;20369;-69
2024/01/30 04:54:34;;;;;;;3.17;3.00;;;;;;;;;;6151983;23;20417;-70
2024/01/30 04:57:00;;;;;;;9.00;4.67;;;;;;;;;;6152487;23;20388;-70
2024/01/30 04:59:26;;;;;;;3.47;3.37;;;;;;;;;;6152289;23;21025;-70
2024/01/30 05:01:52;;;;;;;2.77;2.77;;;;;;;;;;6152533;23;20381;-70
2024/01/30 05:04:18;;;;;;;3.90;3.70;;;;;;;;;;6152043;23;20519;-69
2024/01/30 05:06:45;;;;;;;2.50;2.40;;;;;;;;;;6150201;23;21150;-69
2024/01/30 05:09:12;;;;;;;2.23;2.23;;;;;;;;;;6125388;23;20397;-70
2024/01/30 05:11:38;;;;;;;2.63;2.33;;;;;;;;;;6152592;23;20487;-70
2024/01/30 05:14:04;;;;;;;2.27;2.27;;;;;;;;;;6153028;23;20412;-69
2024/01/30 05:16:30;;;;;;;2.00;2.00;;;;;;;;;;6151707;23;20377;-70
2024/01/30 05:18:56;;;;;;;3.50;1.90;;;;;;;;;;6151978;23;20384;-69
2024/01/30 05:21:22;;;;;;;2.50;2.30;;;;;;;;;;6152803;23;20373;-70
2024/01/30 05:23:48;;;;;;;2.90;2.80;;;;;;;;;;6152306;23;20458;-69
2024/01/30 05:26:14;;;;;;;3.00;2.90;;;;;;;;;;6151668;23;20389;-69
2024/01/30 05:28:40;;;;;;;2.93;2.57;;;;;;;;;;6152081;23;20380;-69
2024/01/30 05:31:06;;;;;;;2.40;2.30;;;;;;;;;;6152172;23;20408;-69
2024/01/30 05:33:32;;;;;;;2.50;2.40;;;;;;;;;;6152390;23;20708;-69
2024/01/30 05:35:58;;;;;;;1.70;1.60;;;;;;;;;;6151825;23;20384;-69
2024/01/30 05:38:24;;;;;;;2.33;2.27;;;;;;;;;;6151339;23;20471;-69
2024/01/30 05:40:50;;;;;;;2.20;2.10;;;;;;;;;;6152645;23;20376;-69
2024/01/30 05:43:16;;;;;;;2.50;2.40;;;;;;;;;;6152652;23;20427;-69
2024/01/30 05:45:42;;;;;;;4.23;3.53;;;;;;;;;;6151643;23;20377;-69
2024/01/30 05:48:08;;;;;;;5.00;3.13;;;;;;;;;;6152163;23;20369;-69
2024/01/30 05:50:34;;;;;;;2.23;2.23;;;;;;;;;;6152841;23;20858;-69
2024/01/30 05:53:00;;;;;;;1.83;1.83;;;;;;;;;;6152262;23;20376;-70
2024/01/30 05:55:26;;;;;;;2.70;2.50;;;;;;;;;;6151500;23;20845;-69
2024/01/30 05:57:52;;;;;;;2.97;2.77;;;;;;;;;;6151533;23;20842;-69
2024/01/30 06:00:18;;;;;;;2.50;2.40;;;;;;;;;;6151282;23;20158;-69
2024/01/30 06:39:05;;;;;;;2.80;2.70;;;;;;;;;;6137532;23;20807;-71
2024/01/30 06:41:31;;;;;;;2.30;2.30;;;;;;;;;;6153353;23;20385;-71
2024/01/30 06:43:57;;;;;;;12.67;9.40;;;;;;;;;;6153153;23;20447;-71
2024/01/30 06:46:23;;;;;;;7.80;6.83;;;;;;;;;;6153726;23;20381;-71
2024/01/30 06:48:49;;;;;;;3.83;3.73;;;;;;;;;;6154697;23;20369;-71
2024/01/30 06:51:15;;;;;;;14.77;7.97;;;;;;;;;;6154033;23;20381;-71
2024/01/30 06:53:41;;;;;;;7.97;6.90;;;;;;;;;;6150638;23;20376;-70
2024/01/30 06:56:07;;;;;;;8.97;5.90;;;;;;;;;;6150928;23;20385;-71
2024/01/30 06:58:33;;;;;;;3.80;3.17;;;;;;;;;;6150827;23;20382;-71
2024/01/30 07:00:59;;;;;;;3.80;3.67;;;;;;;;;;6150452;23;20407;-71
2024/01/30 07:03:25;;;;;;;5.27;4.77;;;;;;;;;;6150758;23;20456;-71
2024/01/30 13:37:18;;;;;;;3.07;2.83;;;;;;;;;;6093691;23;20828;-72
2024/01/30 13:39:44;;;;;;;6.77;3.10;;;;;;;;;;6096047;23;20884;-71
2024/01/30 13:42:11;;;;;;;3.07;2.80;;;;;;;;;;6094102;23;20386;-72
2024/01/30 13:44:37;;;;;;;2.43;2.43;;;;;;;;;;6094943;23;20442;-72
2024/01/30 13:47:03;;;;;;;2.10;2.00;;;;;;;;;;6094887;23;20374;-72
2024/01/30 13:49:29;;;;;;;3.50;2.83;;;;;;;;;;6095227;23;20374;-72
2024/01/30 13:51:55;;;;;;;2.90;2.77;;;;;;;;;;6095469;23;20405;-72
2024/01/30 13:54:21;;;;;;;2.80;2.80;;;;;;;;;;6095617;23;20795;-72
2024/01/30 13:56:47;;;;;;;2.97;2.83;;;;;;;;;;6094675;23;20411;-71
2024/01/30 13:59:13;;;;;;;2.67;2.50;;;;;;;;;;6095999;23;20470;-70
2024/01/30 14:01:39;;;;;;;2.43;2.37;;;;;;;;;;6095903;23;20868;-71
2024/01/30 14:04:05;;;;;;;5.90;5.40;;;;;;;;;;6094735;23;20445;-72
2024/01/30 14:06:31;;;;;;;3.33;2.70;;;;;;;;;;6094748;23;20461;-70
2024/01/30 14:08:58;;;;;;;2.97;2.87;;;;;;;;;;6095310;23;20386;-71
2024/01/30 14:11:24;;;;;;;14.63;3.27;;;;;;;;;;6095567;23;20714;-71
2024/01/30 14:13:52;;;;;;;2.43;2.00;;;;;;;;;;6067961;23;20395;-71
2024/01/30 14:16:18;;;;;;;3.77;3.30;;;;;;;;;;6093562;23;20747;-71
2024/01/30 21:11:21;;;;;;;2.73;2.60;;;;;;;;;;6146998;23;20539;-70
2024/01/30 21:13:48;;;;;;;2.60;1.97;;;;;;;;;;6152541;23;20417;-71
2024/01/30 21:16:14;;;;;;;2.57;2.37;;;;;;;;;;6151351;23;20389;-72
2024/01/30 21:18:42;;;;;;;2.50;2.20;;;;;;;;;;6126565;23;20388;-71
2024/01/30 21:21:08;;;;;;;2.30;2.20;;;;;;;;;;6151372;23;20385;-72
2024/01/30 21:23:34;;;;;;;2.50;2.30;;;;;;;;;;6148587;23;20766;-71
2024/01/30 21:26:03;;;;;;;2.60;2.60;;;;;;;;;;6150640;23;20389;-71
2024/01/30 21:28:29;;;;;;;2.40;2.30;;;;;;;;;;6150309;23;20374;-72
2024/01/30 21:30:55;;;;;;;2.97;2.60;;;;;;;;;;6150581;23;20444;-72
2024/01/30 21:33:21;;;;;;;2.67;2.57;;;;;;;;;;6150828;23;20377;-72
2024/01/30 21:35:47;;;;;;;4.80;3.10;;;;;;;;;;6149260;23;20388;-71
2024/01/30 21:38:15;;;;;;;2.50;2.33;;;;;;;;;;6150553;23;20870;-72
2024/01/30 21:40:41;;;;;;;3.97;3.67;;;;;;;;;;6151264;23;20381;-71
2024/01/30 21:43:07;;;;;;;3.63;3.27;;;;;;;;;;6152483;23;20431;-71
2024/01/30 21:45:33;;;;;;;7.70;6.17;;;;;;;;;;6150960;23;20946;-71
2024/01/30 21:47:59;;;;;;;14.10;10.83;;;;;;;;;;6152188;23;20373;-71
2024/01/30 21:50:25;;;;;;;19.47;13.80;;;;;;;;;;6152790;23;20828;-72
2024/01/30 21:52:52;;;;;;;12.00;10.70;;;;;;;;;;6152369;23;20735;-70
2024/01/30 21:55:17;;;;;;;18.70;12.00;;;;;;;;;;6152449;23;20393;-71
2024/01/30 21:57:43;;;;;;;16.57;12.70;;;;;;;;;;6152822;23;20377;-71
2024/01/30 22:00:11;;;;;;;18.07;12.87;;;;;;;;;;6127939;23;20866;-70
2024/01/30 22:02:37;;;;;;;21.90;12.73;;;;;;;;;;6152913;23;20436;-70
2024/01/30 22:05:04;;;;;;;8.40;7.60;;;;;;;;;;6125362;23;20780;-71
2024/01/30 22:07:30;;;;;;;14.67;9.17;;;;;;;;;;6126523;23;20447;-72
2024/01/30 22:09:55;;;;;;;7.53;6.87;;;;;;;;;;6154063;23;20437;-71
2024/01/30 22:12:22;;;;;;;7.70;4.83;;;;;;;;;;6154073;23;20413;-72
2024/01/30 22:14:48;;;;;;;5.87;4.33;;;;;;;;;;6154308;23;20388;-71
2024/01/30 22:17:14;;;;;;;4.50;3.93;;;;;;;;;;6154434;23;20387;-71
2024/01/30 22:19:41;;;;;;;4.30;4.00;;;;;;;;;;6154482;23;20389;-71
2024/01/30 22:22:07;;;;;;;11.23;9.70;;;;;;;;;;6153545;23;20467;-71
2024/01/30 22:24:33;;;;;;;14.77;11.27;;;;;;;;;;6153943;23;20764;-71
2024/01/30 22:26:59;;;;;;;13.20;10.17;;;;;;;;;;6154335;23;20403;-72
2024/01/30 22:29:25;;;;;;;8.10;7.40;;;;;;;;;;6154376;23;20419;-71
2024/01/30 22:31:51;;;;;;;6.70;6.07;;;;;;;;;;6154329;23;20416;-71
2024/01/30 22:34:17;;;;;;;5.97;5.50;;;;;;;;;;6154040;23;20373;-71
2024/01/30 22:36:44;;;;;;;4.73;4.33;;;;;;;;;;6126828;23;20774;-71
2024/01/30 22:39:10;;;;;;;5.83;5.33;;;;;;;;;;6154028;23;20420;-71
2024/01/30 22:41:36;;;;;;;5.13;4.77;;;;;;;;;;6154045;23;20393;-71
2024/01/30 22:44:02;;;;;;;4.53;4.27;;;;;;;;;;6154010;23;20460;-71
2024/01/30 22:46:28;;;;;;;4.60;3.80;;;;;;;;;;6153385;23;20384;-71
2024/01/30 22:48:54;;;;;;;3.80;3.70;;;;;;;;;;6154050;23;20427;-70
2024/01/30 22:51:20;;;;;;;4.37;4.07;;;;;;;;;;6153587;23;20472;-71
2024/01/30 22:53:49;;;;;;;12.27;7.10;;;;;;;;;;6153848;23;20380;-70
2024/01/30 22:56:16;;;;;;;10.40;5.90;;;;;;;;;;6153069;23;20392;-71
2024/01/30 22:58:42;;;;;;;8.50;6.10;;;;;;;;;;6153493;23;20382;-71
2024/01/30 23:01:08;;;;;;;8.00;5.63;;;;;;;;;;6153634;23;20393;-71
2024/01/30 23:03:34;;;;;;;5.83;5.30;;;;;;;;;;6153519;23;20432;-71
2024/01/30 23:06:00;;;;;;;13.50;6.90;;;;;;;;;;6153006;23;20392;-72
2024/01/30 23:08:26;;;;;;;5.90;5.40;;;;;;;;;;6154108;23;20381;-71
2024/01/30 23:10:52;;;;;;;7.10;5.87;;;;;;;;;;6153627;23;20447;-72
2024/01/30 23:13:18;;;;;;;5.03;4.63;;;;;;;;;;6128041;23;20416;-71
2024/01/30 23:15:44;;;;;;;5.03;4.33;;;;;;;;;;6153157;23;20855;-71
2024/01/30 23:18:10;;;;;;;6.60;5.57;;;;;;;;;;6153739;23;20444;-71
2024/01/30 23:20:39;;;;;;;4.50;4.07;;;;;;;;;;6153229;23;20381;-71
2024/01/30 23:23:06;;;;;;;6.73;5.30;;;;;;;;;;6153535;23;20405;-72
2024/01/30 23:25:32;;;;;;;5.00;4.60;;;;;;;;;;6153238;23;20925;-71
2024/01/30 23:27:58;;;;;;;4.93;4.10;;;;;;;;;;6153697;23;20401;-72
2024/01/30 23:30:23;;;;;;;9.10;4.80;;;;;;;;;;6153907;23;20381;-71
2024/01/30 23:32:53;;;;;;;5.87;5.37;;;;;;;;;;6153607;23;20417;-71
2024/01/30 23:35:19;;;;;;;12.40;8.80;;;;;;;;;;6152619;23;20443;-71
2024/01/30 23:37:45;;;;;;;7.33;6.10;;;;;;;;;;6153332;23;20385;-71
2024/01/30 23:40:14;;;;;;;11.63;6.30;;;;;;;;;;6153727;23;20412;-71
2024/01/30 23:42:41;;;;;;;8.83;7.93;;;;;;;;;;6153680;23;20377;-71
2024/01/30 23:45:07;;;;;;;5.40;5.10;;;;;;;;;;6153067;23;20432;-72
2024/01/30 23:47:33;;;;;;;8.57;7.67;;;;;;;;;;6153531;23;20472;-71
2024/01/30 23:49:59;;;;;;;7.47;6.87;;;;;;;;;;6153503;23;20472;-71
2024/01/30 23:52:25;;;;;;;18.90;7.60;;;;;;;;;;6153037;23;20389;-71
2024/01/30 23:54:51;;;;;;;9.77;8.70;;;;;;;;;;6153404;23;20856;-71
2024/01/30 23:57:17;;;;;;;7.03;6.47;;;;;;;;;;6152959;23;20385;-71
2024/01/30 23:59:43;;;;;;;5.70;5.23;;;;;;;;;;6153283;23;20385;-71
